• Join FlightAware (Why Join?)
  • Login
  • US Flag 
07:59PM EDT


 

Airport Tracker/Info


-or-


 

Live Flight TrackerFlight Track Log ✈ CPZ5718 ✈ 22-Aug-2013 ✈ KALB - KMSP

Flight Track Log - Related Links

Times and Time Zones

All times are in EDT time to prevent confusion due to time zone crossing. See the CPZ5718 flight status page for this flight to view local times or setup timezone preferences in your user account.

Time Position Orientation Groundspeed Altitude Reporting Facility
EDT Latitude Longitude Course Direction KTS MPH feet Rate Location/Type
08:35AM 42.7236 -73.8081 281° West 144 166 1,300  Level Boston Center
08:37AM 42.6583 -73.8544 208° Southwest 234 269 3,600 1,980 Climbing Boston Center
08:38AM 42.8337 -74.3353 283° West  Level FlightAware Approximate
08:38AM 42.6989 -73.9375 304° West 265 305 6,500  Level Boston Center
08:39AM 42.8564 -74.4717 283° West  Level FlightAware Approximate
08:39AM 42.7586 -74.0067 320° Northwest 270 311 9,500  Level Boston Center
08:40AM 42.8899 -74.5976 281° West  Level FlightAware Approximate
08:40AM 42.8200 -74.0761 320° Northwest 277 319 11,000  Level Boston Center
08:41AM 42.9087 -74.7352 281° West  Level FlightAware Approximate
08:41AM 42.8897 -74.1603 319° Northwest 321 369 13,100  Level Boston Center
08:42AM 42.9717 -74.2561 319° Northwest 344 396 15,400 1,980 Climbing Boston Center
08:43AM 43.0392 -74.3350 320° Northwest 356 410 17,100 1,680 Climbing Boston Center
08:44AM 43.0742 -74.4781 289° West 356 410 18,800 1,560 Climbing Boston Center
08:45AM 43.0822 -74.6064 275° West 351 404 20,200 1,440 Climbing Boston Center
08:46AM 43.0897 -74.7544 274° West 371 427 21,800 1,500 Climbing Boston Center
08:47AM 43.0969 -74.9083 274° West 393 452 23,200 1,500 Climbing Boston Center
08:48AM 43.1061 -75.0594 275° West 404 465 24,800 1,320 Climbing Boston Center
08:49AM 43.1147 -75.2161 274° West 409 471 26,000 1,200 Climbing Boston Center
08:50AM 43.1231 -75.3903 274° West 409 471 27,200 960 Climbing Boston Center
08:51AM 43.1311 -75.5500 274° West 414 476 28,000 840 Climbing Boston Center
08:52AM 43.1392 -75.7125 274° West 425 489 28,900 1,020 Climbing Boston Center
08:53AM 43.1469 -75.8725 274° West 425 489 30,100 960 Climbing Boston Center
08:55AM 43.1567 -76.2539 272° West 419 482 32,300 900 Climbing Cleveland Center
08:56AM 43.1397 -76.4175 262° West 424 488 33,100 900 Climbing Cleveland Center
08:57AM 43.1286 -76.5747 265° West 424 488 34,200 960 Climbing Cleveland Center
08:58AM 43.1131 -76.7350 262° West 424 488 35,100 600 Climbing Cleveland Center
08:59AM 43.1100 -76.8889 268° West 424 488 35,500 420 Climbing Cleveland Center
09:00AM 43.1378 -77.0436 284° West 418 481 36,000 240 Climbing Cleveland Center
09:01AM 43.1650 -77.1958 284° West 423 487 36,000  Level Cleveland Center
09:02AM 43.1928 -77.3567 283° West 429 494 36,000  Level Cleveland Center
09:03AM 43.2197 -77.5064 284° West 429 494 36,000  Level Cleveland Center
09:04AM 43.2486 -77.6617 284° West 429 494 36,000  Level Cleveland Center
09:05AM 43.2733 -77.8175 282° West 429 494 36,000  Level Cleveland Center
09:06AM 43.3017 -77.9644 285° West 424 488 36,000  Level Cleveland Center
09:07AM 43.3258 -78.1147 283° West 411 473 36,000  Level Cleveland Center
09:08AM 43.3475 -78.2508 282° West 411 473 36,000  Level Cleveland Center
09:09AM 43.3733 -78.4014 283° West 411 473 36,000  Level Cleveland Center
09:10AM 43.3992 -78.5547 283° West 411 473 36,000  Level Cleveland Center
09:11AM 43.4244 -78.7053 283° West 411 473 36,000  Level Cleveland Center
09:12AM 43.4497 -78.8561 283° West 411 473 36,000  Level Cleveland Center
09:13AM 43.4667 -79.0167 278° West 410 472 36,000  Level Toronto Center
09:14AM 43.5000 -79.1667 287° West 410 472 36,000  Level Toronto Center
09:15AM 43.5167 -79.3333 278° West 410 472 36,000  Level Toronto Center
09:16AM 43.5333 -79.5000 278° West 410 472 36,000  Level Toronto Center
09:17AM 43.5667 -79.6333 289° West 410 472 36,000  Level Toronto Center
09:18AM 43.5833 -79.8000 278° West 420 483 36,000  Level Toronto Center
09:19AM 43.6167 -79.9500 287° West 410 472 36,000  Level Toronto Center
09:20AM 43.6333 -80.1000 279° West 410 472 36,000  Level Toronto Center
09:21AM 43.6667 -80.2500 287° West 410 472 36,000  Level Toronto Center
09:22AM 43.6833 -80.4167 278° West 410 472 36,000  Level Toronto Center
09:23AM 43.7000 -80.5833 278° West 410 472 36,000  Level Toronto Center
09:24AM 43.7333 -80.7167 289° West 410 472 36,000  Level Toronto Center
09:25AM 43.7333 -80.8833 270° West 410 472 36,000 -120 Level Toronto Center
09:26AM 43.7667 -81.0167 289° West 410 472 35,800 -720 Descending Toronto Center
09:27AM 43.7833 -81.1833 278° West 410 472 34,600 -1,140 Descending Toronto Center
09:28AM 43.8167 -81.3500 286° West 410 472 33,600 -1,080 Descending Toronto Center
09:29AM 43.8333 -81.4833 280° West 400 460 32,500 -1,140 Descending Toronto Center
09:30AM 43.8500 -81.6500 278° West 400 460 31,400 -1,140 Descending Toronto Center
09:31AM 43.8833 -81.7833 289° West 410 472 30,300 -1,140 Descending Toronto Center
09:32AM 43.8833 -81.9500 270° West 410 472 29,200 -1,140 Descending Toronto Center
09:33AM 43.9000 -82.1167 278° West 410 472 28,100 -600 Descending Toronto Center
09:34AM 43.9333 -82.2667 287° West 410 472 28,000 -60 Descending Toronto Center
09:35AM 43.9500 -82.4167 279° West 410 472 28,000  Level Toronto Center
09:36AM 43.9833 -82.5833 286° West 410 472 28,000  Level Toronto Center
09:37AM 43.9833 -82.7333 270° West 410 472 28,000  Level Toronto Center
09:38AM 44.0167 -82.9000 286° West 400 460 28,000 360 Level Toronto Center
09:39AM 44.0333 -83.0500 279° West 400 460 28,800 780 Climbing Toronto Center
09:40AM 44.0489 -83.1089 290° West 403 464 29,200 900 Climbing Minneapolis Center
09:41AM 44.0686 -83.2625 280° West 405 466 30,200 960 Climbing Minneapolis Center
09:42AM 44.0872 -83.4172 280° West 406 467 31,200 840 Climbing Minneapolis Center
09:43AM 44.1086 -83.6022 279° West 405 466 32,000 360 Climbing Minneapolis Center
09:44AM 44.1272 -83.7528 280° West 400 460 32,000  Level Minneapolis Center
09:45AM 44.1436 -83.9031 279° West 395 455 32,000  Level Minneapolis Center
09:46AM 44.1619 -84.0542 280° West 395 455 32,000  Level Minneapolis Center
09:47AM 44.1803 -84.2044 280° West 395 455 32,000  Level Minneapolis Center
09:48AM 44.1964 -84.3550 279° West 394 453 32,000  Level Minneapolis Center
09:49AM 44.2119 -84.5042 278° West 390 449 32,000  Level Minneapolis Center
09:50AM 44.2314 -84.6836 279° West 391 450 32,000  Level Minneapolis Center
09:51AM 44.2489 -84.8306 279° West 387 445 32,000  Level Minneapolis Center
09:52AM 44.2656 -84.9794 279° West 387 445 32,000  Level Minneapolis Center
09:53AM 44.2808 -85.1286 278° West 388 447 32,000  Level Minneapolis Center
09:54AM 44.2967 -85.2778 278° West 388 447 32,000  Level Minneapolis Center
09:55AM 44.3114 -85.4275 278° West 389 448 32,000  Level Minneapolis Center
09:56AM 44.3253 -85.5772 277° West 389 448 32,000  Level Minneapolis Center
09:57AM 44.3425 -85.7569 278° West 389 448 32,000  Level Minneapolis Center
09:58AM 44.3572 -85.9061 278° West 388 447 32,000  Level Minneapolis Center
09:59AM 44.3711 -86.0525 278° West 381 438 32,000  Level Minneapolis Center
10:00AM 44.3861 -86.2000 278° West 381 438 32,000  Level Minneapolis Center
10:02AM 44.3997 -86.3478 277° West 381 438 32,000  Level Minneapolis Center
10:03AM 44.4133 -86.4975 277° West 385 443 32,000  Level Minneapolis Center
10:04AM 44.4264 -86.6458 277° West 386 444 32,000  Level Minneapolis Center
10:05AM 44.4369 -86.7653 277° West 387 445 32,000  Level Minneapolis Center
10:06AM 44.4528 -86.9428 277° West 383 441 32,000  Level Minneapolis Center
10:07AM 44.4689 -87.1183 277° West 380 437 32,000  Level Minneapolis Center
10:08AM 44.4808 -87.2656 277° West 381 438 32,000  Level Minneapolis Center
10:09AM 44.4958 -87.4400 277° West 378 435 32,000  Level Minneapolis Center
10:10AM 44.5078 -87.5839 277° West 375 432 32,000  Level Minneapolis Center
10:11AM 44.5200 -87.7294 277° West 376 433 32,000  Level Minneapolis Center
10:12AM 44.5317 -87.8739 277° West 374 430 32,000  Level Minneapolis Center
10:13AM 44.5428 -88.0383 275° West 374 430 32,000  Level Minneapolis Center
10:14AM 44.5542 -88.1808 276° West 372 428 32,000  Level Minneapolis Center
10:15AM 44.5708 -88.3244 279° West 372 428 32,000  Level Minneapolis Center
10:16AM 44.5872 -88.4669 279° West 374 430 32,000  Level Minneapolis Center
10:17AM 44.6036 -88.6097 279° West 372 428 32,000  Level Minneapolis Center
10:18AM 44.6231 -88.7758 279° West 371 427 32,000  Level Minneapolis Center
10:19AM 44.6411 -88.9417 279° West 370 426 32,000  Level Minneapolis Center
10:20AM 44.6575 -89.0850 279° West 370 426 32,000 -120 Level Minneapolis Center
10:21AM 44.6733 -89.2269 279° West 369 425 31,800 -1,440 Descending Minneapolis Center
10:22AM 44.6883 -89.3703 278° West 371 427 29,100 -1,860 Descending Minneapolis Center
10:24AM 44.7072 -89.5378 279° West 373 429 28,000 -540 Descending Minneapolis Center
10:25AM 44.7211 -89.6817 278° West 372 428 28,000  Level Minneapolis Center
10:26AM 44.7369 -89.8258 279° West 374 430 28,000  Level Minneapolis Center
10:27AM 44.7511 -89.9711 278° West 375 432 28,000  Level Minneapolis Center
10:28AM 44.7667 -90.1156 279° West 374 430 28,000  Level Minneapolis Center
10:29AM 44.7811 -90.2614 278° West 376 433 28,000  Level Minneapolis Center
10:30AM 44.7983 -90.4319 278° West 377 434 28,000 -660 Level Minneapolis Center
10:31AM 44.8153 -90.5686 280° West 375 432 26,700 -1,920 Descending Minneapolis Center
10:32AM 44.8358 -90.7108 282° West 371 427 24,100 -1,320 Descending Minneapolis Center
10:33AM 44.8539 -90.8447 281° West 383 441 24,000 -60 Descending Minneapolis Center
10:34AM 44.8772 -91.0106 281° West 391 450 24,000  Level Minneapolis Center
10:35AM 44.9019 -91.1900 281° West 391 450 24,000  Level Minneapolis Center
10:36AM 44.9214 -91.3383 281° West 389 448 24,000  Level Minneapolis Center
10:37AM 44.9419 -91.4878 281° West 388 447 24,000 -540 Level Minneapolis Center
10:38AM 44.9628 -91.6367 281° West 389 448 22,900 -1,860 Descending Minneapolis Center
10:39AM 44.9825 -91.7828 281° West 383 441 20,200 -2,520 Descending Minneapolis Center
10:40AM 45.0019 -91.9231 281° West 369 425 17,700 -2,760 Descending Minneapolis Center
10:41AM 45.0239 -92.0853 281° West 352 405 14,500 -2,760 Descending Minneapolis Center
10:42AM 45.0403 -92.2172 280° West 342 394 12,000 -1,740 Descending Minneapolis Center
10:43AM 45.0444 -92.3242 273° West 341 392 11,000 -840 Descending Minneapolis Center
10:44AM 44.9950 -92.4583 243° Southwest 313 360 10,300 -1,260 Descending Minneapolis Center
10:45AM 44.9519 -92.5539 238° Southwest 290 334 8,400 -1,620 Descending Minneapolis Center
10:46AM 44.9100 -92.6506 239° Southwest 289 333 7,000 -960 Descending Minneapolis Center
10:47AM 44.8650 -92.7656 241° Southwest 281 323 6,500 -1,140 Descending Minneapolis Center
10:48AM 44.8269 -92.8608 241° Southwest 280 322 4,700 -1,320 Descending Minneapolis Center
10:49AM 44.8211 -92.9658 266° West 272 313 3,800 -780 Descending Minneapolis Center
10:50AM 44.8222 -93.0553 271° West 238 274 3,100 -840 Descending Minneapolis Center
10:51AM 44.8486 -93.1183 301° West 194 223 2,100 -960 Descending Minneapolis Center
10:52AM 44.8739 -93.1769 301° West 146 168 1,200 -900 Descending Minneapolis Center